Time;durP1;ratioP1;P1;durP2;ratioP2;P2;SDS_P1;SDS_P2;PMS_P1;PMS_P2;Temp;Humidity;BMP_temperature;BMP_pressure;BME280_temperature;BME280_humidity;BME280_pressure;Samples;Min_cycle;Max_cycle;Signal;HPM_P1;HPM_P2
2022/07/08 00:01:46;;;;;;;18.20;3.63;;;;;;;;;;5015645;28;20037;-63
2022/07/08 00:04:11;;;;;;;9.63;1.88;;;;;;;;;;5030120;28;20037;-62
2022/07/08 00:06:37;;;;;;;7.05;1.75;;;;;;;;;;5031591;28;20116;-63
2022/07/08 00:09:03;;;;;;;8.55;1.55;;;;;;;;;;5033496;28;20536;-64
2022/07/08 00:11:28;;;;;;;9.07;1.80;;;;;;;;;;5032166;28;20036;-63
2022/07/08 00:13:54;;;;;;;6.72;1.70;;;;;;;;;;5033585;28;20029;-63
2022/07/08 00:16:19;;;;;;;5.63;1.60;;;;;;;;;;5021726;28;20076;-63
2022/07/08 00:18:45;;;;;;;8.13;1.77;;;;;;;;;;5014810;28;20053;-63
2022/07/08 00:21:10;;;;;;;5.95;1.70;;;;;;;;;;5019991;28;20044;-62
2022/07/08 00:23:36;;;;;;;7.53;1.85;;;;;;;;;;5023115;28;20037;-63
2022/07/08 00:26:01;;;;;;;9.50;1.75;;;;;;;;;;5032613;28;20042;-63
2022/07/08 00:28:26;;;;;;;5.05;1.60;;;;;;;;;;5032568;28;20040;-63
2022/07/08 00:30:52;;;;;;;5.60;1.80;;;;;;;;;;5030446;28;20453;-64
2022/07/08 00:33:18;;;;;;;5.10;1.60;;;;;;;;;;5046744;28;20040;-62
2022/07/08 00:35:44;;;;;;;5.60;1.55;;;;;;;;;;5012906;28;20055;-63
2022/07/08 00:38:09;;;;;;;8.75;1.85;;;;;;;;;;5034054;28;20216;-62
2022/07/08 00:40:35;;;;;;;6.57;1.83;;;;;;;;;;5026743;28;20401;-62
2022/07/08 00:43:00;;;;;;;6.55;1.90;;;;;;;;;;5014412;28;20042;-63
2022/07/08 00:45:26;;;;;;;7.72;1.67;;;;;;;;;;5026997;28;20033;-64
2022/07/08 00:47:52;;;;;;;5.45;1.65;;;;;;;;;;5027199;28;20045;-63
2022/07/08 00:50:18;;;;;;;7.43;1.80;;;;;;;;;;5031416;28;20056;-63
2022/07/08 00:52:45;;;;;;;6.82;1.70;;;;;;;;;;5033217;28;20044;-65
2022/07/08 00:55:10;;;;;;;7.45;1.75;;;;;;;;;;5031911;28;20111;-62
2022/07/08 00:57:38;;;;;;;8.52;1.80;;;;;;;;;;5030446;28;20061;-65
2022/07/08 01:00:05;;;;;;;6.97;1.70;;;;;;;;;;5031982;28;20041;-64
2022/07/08 01:02:30;;;;;;;6.93;1.67;;;;;;;;;;5029320;28;20037;-64
2022/07/08 01:04:56;;;;;;;9.77;2.22;;;;;;;;;;5029006;28;20029;-64
2022/07/08 01:07:22;;;;;;;5.47;1.80;;;;;;;;;;4995232;28;20029;-64
2022/07/08 01:09:48;;;;;;;8.23;1.60;;;;;;;;;;5014296;28;20375;-64
2022/07/08 01:12:13;;;;;;;10.10;1.90;;;;;;;;;;5028316;28;20497;-64
2022/07/08 01:14:39;;;;;;;6.68;1.90;;;;;;;;;;5013660;28;20525;-64
2022/07/08 01:17:04;;;;;;;6.78;1.80;;;;;;;;;;5032070;28;20041;-64
2022/07/08 01:19:32;;;;;;;9.45;2.13;;;;;;;;;;5030077;28;20479;-64
2022/07/08 01:21:57;;;;;;;6.95;1.95;;;;;;;;;;5031046;28;20112;-64
2022/07/08 01:24:23;;;;;;;8.60;1.90;;;;;;;;;;5030901;28;20117;-64
2022/07/08 01:26:48;;;;;;;12.13;2.78;;;;;;;;;;5032868;28;20460;-64
2022/07/08 01:29:14;;;;;;;5.88;1.90;;;;;;;;;;5030230;28;20029;-63
2022/07/08 01:31:40;;;;;;;7.43;2.15;;;;;;;;;;5030118;28;20029;-64
2022/07/08 01:34:05;;;;;;;8.35;1.90;;;;;;;;;;5031615;28;20382;-64
2022/07/08 01:36:31;;;;;;;6.55;1.83;;;;;;;;;;5030865;28;20041;-64
2022/07/08 01:38:56;;;;;;;8.52;1.90;;;;;;;;;;5030144;28;20474;-65
2022/07/08 01:41:21;;;;;;;10.85;2.08;;;;;;;;;;5031291;28;20071;-64
2022/07/08 01:43:47;;;;;;;11.52;2.10;;;;;;;;;;5030600;28;20397;-64
2022/07/08 01:46:12;;;;;;;6.53;1.92;;;;;;;;;;5032745;28;20080;-64
2022/07/08 01:48:38;;;;;;;7.72;1.92;;;;;;;;;;5027672;28;20119;-64
2022/07/08 01:51:03;;;;;;;8.75;2.20;;;;;;;;;;5031715;28;20195;-65
2022/07/08 01:53:29;;;;;;;6.85;1.98;;;;;;;;;;5028757;28;20480;-64
2022/07/08 01:55:54;;;;;;;5.68;1.80;;;;;;;;;;5031091;28;20041;-64
2022/07/08 01:58:20;;;;;;;5.60;1.98;;;;;;;;;;5027977;28;20036;-64
2022/07/08 02:00:45;;;;;;;9.32;2.22;;;;;;;;;;5012521;28;20403;-64
2022/07/08 02:03:10;;;;;;;6.35;2.00;;;;;;;;;;5015304;28;20080;-65
2022/07/08 02:05:37;;;;;;;10.35;2.20;;;;;;;;;;5019006;28;20060;-64
2022/07/08 02:08:03;;;;;;;5.70;2.10;;;;;;;;;;5021427;28;20402;-64
2022/07/08 02:12:18;;;;;;;7.05;2.53;;;;;;;;;;5011801;28;20030;-64
2022/07/08 02:13:16;;;;;;;8.45;1.95;;;;;;;;;;5025531;28;20163;-64
2022/07/08 02:15:42;;;;;;;8.82;2.35;;;;;;;;;;5031003;28;20358;-64
2022/07/08 02:18:07;;;;;;;10.07;2.13;;;;;;;;;;5032234;28;20060;-64
2022/07/08 02:20:33;;;;;;;9.15;2.50;;;;;;;;;;5031067;28;20454;-64
2022/07/08 02:22:58;;;;;;;14.52;2.35;;;;;;;;;;5031306;28;20029;-64
2022/07/08 02:25:23;;;;;;;8.68;2.22;;;;;;;;;;5026372;28;20474;-64
2022/07/08 02:27:49;;;;;;;7.70;2.00;;;;;;;;;;5031113;28;20029;-64
2022/07/08 02:30:14;;;;;;;8.20;2.20;;;;;;;;;;5031169;28;20116;-64
2022/07/08 02:32:39;;;;;;;7.72;2.33;;;;;;;;;;5028664;28;20033;-64
2022/07/08 02:35:05;;;;;;;7.05;2.10;;;;;;;;;;5032087;28;20030;-64
2022/07/08 02:37:31;;;;;;;10.85;2.10;;;;;;;;;;5020942;28;20090;-64
2022/07/08 02:39:56;;;;;;;14.38;2.70;;;;;;;;;;5030799;28;20029;-65
2022/07/08 02:42:22;;;;;;;9.43;2.13;;;;;;;;;;5024546;28;20022;-64
2022/07/08 02:44:47;;;;;;;7.88;2.22;;;;;;;;;;5032034;28;20037;-64
2022/07/08 02:47:12;;;;;;;7.97;2.10;;;;;;;;;;5029120;28;20028;-64
2022/07/08 02:49:38;;;;;;;3.28;1.67;;;;;;;;;;5029758;28;20045;-65
2022/07/08 02:52:03;;;;;;;13.23;2.40;;;;;;;;;;5027387;28;20030;-64
2022/07/08 02:54:29;;;;;;;7.07;1.85;;;;;;;;;;5031053;28;20516;-64
2022/07/08 02:56:54;;;;;;;6.30;2.13;;;;;;;;;;5029953;28;20053;-64
2022/07/08 02:59:20;;;;;;;9.35;1.90;;;;;;;;;;5031328;28;20386;-64
2022/07/08 03:01:45;;;;;;;9.57;2.40;;;;;;;;;;5024481;28;20038;-64
2022/07/08 03:04:10;;;;;;;7.57;1.92;;;;;;;;;;5011793;28;20030;-64
2022/07/08 03:06:36;;;;;;;8.15;2.10;;;;;;;;;;5011003;28;20068;-64
2022/07/08 03:09:02;;;;;;;5.63;1.95;;;;;;;;;;5011975;28;20037;-64
2022/07/08 03:11:27;;;;;;;5.63;2.10;;;;;;;;;;5029013;28;20479;-64
2022/07/08 03:13:53;;;;;;;7.57;2.00;;;;;;;;;;5011545;28;20036;-64
2022/07/08 03:16:18;;;;;;;9.95;2.20;;;;;;;;;;5030311;28;20393;-64
2022/07/08 03:18:43;;;;;;;7.50;2.17;;;;;;;;;;5028197;28;20489;-64
2022/07/08 03:21:09;;;;;;;9.50;2.10;;;;;;;;;;5011552;28;20068;-64
2022/07/08 03:23:34;;;;;;;9.23;2.22;;;;;;;;;;5025220;28;20573;-64
2022/07/08 03:26:01;;;;;;;8.32;2.22;;;;;;;;;;5049871;28;20037;-64
2022/07/08 03:28:26;;;;;;;11.20;2.72;;;;;;;;;;5033816;28;20057;-64
2022/07/08 03:30:52;;;;;;;9.45;2.05;;;;;;;;;;5033669;28;20478;-64
2022/07/08 03:33:17;;;;;;;8.93;1.95;;;;;;;;;;5033198;28;20052;-64
2022/07/08 03:35:43;;;;;;;6.22;2.20;;;;;;;;;;5034142;28;20240;-64
2022/07/08 03:38:08;;;;;;;8.02;2.15;;;;;;;;;;5034697;28;20469;-65
2022/07/08 03:43:17;;;;;;;10.80;2.42;;;;;;;;;;5034440;28;20045;-65
2022/07/08 03:45:43;;;;;;;8.95;2.30;;;;;;;;;;5033350;28;20021;-64
2022/07/08 03:48:08;;;;;;;7.13;2.05;;;;;;;;;;5034735;28;20442;-64
2022/07/08 03:50:34;;;;;;;8.13;2.42;;;;;;;;;;5030022;28;20033;-64
2022/07/08 03:52:59;;;;;;;7.68;2.25;;;;;;;;;;5025845;28;20061;-64
2022/07/08 03:55:25;;;;;;;5.22;2.25;;;;;;;;;;5031847;28;20029;-64
2022/07/08 03:57:51;;;;;;;8.77;2.10;;;;;;;;;;5034723;28;20458;-64
2022/07/08 04:00:19;;;;;;;8.35;3.15;;;;;;;;;;5025462;28;20161;-64
2022/07/08 04:02:44;;;;;;;6.78;2.20;;;;;;;;;;5017618;28;20077;-64
2022/07/08 04:05:10;;;;;;;4.15;1.70;;;;;;;;;;5031786;28;20118;-65
2022/07/08 04:07:35;;;;;;;6.72;2.30;;;;;;;;;;5026684;28;20482;-64
2022/07/08 04:10:01;;;;;;;6.55;2.15;;;;;;;;;;5031196;28;20481;-65
2022/07/08 04:12:26;;;;;;;6.93;2.20;;;;;;;;;;5034007;28;20044;-64
2022/07/08 04:14:51;;;;;;;7.13;2.20;;;;;;;;;;5029275;28;20108;-64
2022/07/08 04:17:17;;;;;;;9.90;2.45;;;;;;;;;;5034695;28;20470;-65
2022/07/08 04:19:42;;;;;;;6.85;2.20;;;;;;;;;;5029892;28;20033;-64
2022/07/08 04:22:08;;;;;;;6.30;2.03;;;;;;;;;;5033984;28;20037;-65
2022/07/08 04:24:33;;;;;;;5.38;1.83;;;;;;;;;;5033040;28;20450;-64
2022/07/08 04:26:59;;;;;;;8.82;2.40;;;;;;;;;;5034184;28;20421;-64
2022/07/08 04:29:24;;;;;;;7.35;2.10;;;;;;;;;;5028760;28;20455;-64
2022/07/08 04:31:49;;;;;;;7.75;2.40;;;;;;;;;;5033462;28;20108;-64
2022/07/08 04:34:15;;;;;;;6.25;2.10;;;;;;;;;;5033384;28;20033;-64
2022/07/08 04:36:40;;;;;;;8.88;2.30;;;;;;;;;;5031012;28;20060;-64
2022/07/08 04:39:06;;;;;;;8.00;2.40;;;;;;;;;;5024958;28;20045;-65
2022/07/08 04:41:31;;;;;;;7.93;2.35;;;;;;;;;;5016702;28;20032;-64
2022/07/08 04:43:57;;;;;;;11.00;2.63;;;;;;;;;;5033359;28;20030;-65
2022/07/08 04:46:22;;;;;;;6.13;2.30;;;;;;;;;;5031564;28;20033;-64
2022/07/08 04:48:47;;;;;;;8.07;2.08;;;;;;;;;;5021457;28;20063;-64
2022/07/08 04:51:13;;;;;;;7.28;2.30;;;;;;;;;;5006903;28;20030;-64
2022/07/08 04:53:38;;;;;;;5.28;2.00;;;;;;;;;;5013223;28;20033;-64
2022/07/08 04:56:04;;;;;;;8.38;2.20;;;;;;;;;;5013009;28;20029;-64
2022/07/08 04:58:31;;;;;;;6.57;2.13;;;;;;;;;;5011865;28;20046;-64
2022/07/08 05:00:56;;;;;;;9.35;2.13;;;;;;;;;;4994895;28;20088;-64
2022/07/08 05:03:22;;;;;;;11.25;2.20;;;;;;;;;;5011609;28;20026;-65
2022/07/08 05:05:47;;;;;;;6.45;2.17;;;;;;;;;;5012571;28;20217;-64
2022/07/08 05:08:13;;;;;;;8.13;2.17;;;;;;;;;;5013071;28;20152;-64
2022/07/08 05:10:39;;;;;;;11.15;2.22;;;;;;;;;;5012226;28;20113;-64
2022/07/08 05:13:07;;;;;;;6.70;1.83;;;;;;;;;;5013297;28;20037;-64
2022/07/08 05:15:32;;;;;;;8.07;2.08;;;;;;;;;;4996461;28;20106;-64
2022/07/08 05:17:58;;;;;;;5.40;1.90;;;;;;;;;;5012680;28;20061;-64
2022/07/08 05:20:23;;;;;;;4.35;1.90;;;;;;;;;;5013590;28;20120;-65
2022/07/08 05:22:49;;;;;;;8.27;2.22;;;;;;;;;;5004459;28;20041;-64
2022/07/08 05:25:14;;;;;;;6.43;2.30;;;;;;;;;;5013836;28;20033;-64
2022/07/08 05:27:40;;;;;;;7.65;2.30;;;;;;;;;;5011229;28;20045;-64
2022/07/08 05:30:07;;;;;;;7.72;2.28;;;;;;;;;;5007364;28;20057;-63
2022/07/08 05:32:33;;;;;;;9.88;2.55;;;;;;;;;;5013089;28;20037;-65
2022/07/08 05:34:59;;;;;;;12.52;2.58;;;;;;;;;;5009754;28;20029;-64
2022/07/08 05:37:24;;;;;;;7.13;2.25;;;;;;;;;;5008316;28;20482;-63
2022/07/08 05:39:50;;;;;;;6.35;2.30;;;;;;;;;;5012404;28;20181;-62
2022/07/08 05:42:15;;;;;;;11.00;2.65;;;;;;;;;;5011853;28;20112;-63
2022/07/08 05:44:40;;;;;;;6.97;2.17;;;;;;;;;;5012011;28;20033;-64
2022/07/08 05:47:07;;;;;;;7.35;2.08;;;;;;;;;;5002671;28;20030;-64
2022/07/08 05:49:33;;;;;;;9.50;2.20;;;;;;;;;;5003002;28;20449;-64
2022/07/08 05:51:58;;;;;;;8.55;2.17;;;;;;;;;;4993507;28;20478;-64
2022/07/08 05:54:24;;;;;;;9.48;2.45;;;;;;;;;;5012861;28;20478;-64
2022/07/08 05:56:49;;;;;;;11.90;2.83;;;;;;;;;;4993318;28;20648;-64
2022/07/08 05:59:15;;;;;;;6.18;2.10;;;;;;;;;;5012226;28;20053;-65
2022/07/08 06:01:40;;;;;;;9.00;2.17;;;;;;;;;;5011961;28;20030;-64
2022/07/08 06:04:05;;;;;;;9.68;2.33;;;;;;;;;;5012974;28;20418;-65
2022/07/08 06:06:31;;;;;;;11.85;2.20;;;;;;;;;;5010774;28;20036;-66
2022/07/08 06:08:56;;;;;;;11.70;2.10;;;;;;;;;;5012509;28;20037;-63
2022/07/08 06:11:22;;;;;;;8.00;2.10;;;;;;;;;;5006233;28;20026;-63
2022/07/08 06:13:47;;;;;;;6.10;1.95;;;;;;;;;;5008380;28;20087;-65
2022/07/08 06:16:13;;;;;;;8.25;2.00;;;;;;;;;;5012242;28;20037;-64
2022/07/08 06:18:38;;;;;;;4.13;1.80;;;;;;;;;;5010461;28;20455;-64
2022/07/08 06:21:04;;;;;;;7.20;1.90;;;;;;;;;;5012564;28;20509;-65
2022/07/08 06:23:29;;;;;;;8.95;2.08;;;;;;;;;;5011214;28;20032;-67
2022/07/08 06:25:55;;;;;;;6.75;1.83;;;;;;;;;;5010668;28;20021;-64
2022/07/08 06:28:20;;;;;;;4.60;1.77;;;;;;;;;;4992714;28;20144;-64
2022/07/08 06:30:46;;;;;;;7.85;1.80;;;;;;;;;;5002753;28;20215;-65
2022/07/08 06:33:11;;;;;;;8.38;2.20;;;;;;;;;;5011336;28;20040;-65
2022/07/08 06:35:37;;;;;;;11.07;2.75;;;;;;;;;;5006318;28;20030;-64
2022/07/08 06:38:02;;;;;;;8.02;1.83;;;;;;;;;;4988993;28;20533;-64
2022/07/08 06:40:28;;;;;;;11.05;1.90;;;;;;;;;;5001525;28;20056;-65
2022/07/08 06:42:53;;;;;;;7.05;1.70;;;;;;;;;;5010802;28;20041;-64
2022/07/08 06:45:19;;;;;;;8.18;2.08;;;;;;;;;;5009714;28;20080;-64
2022/07/08 06:47:44;;;;;;;6.88;1.85;;;;;;;;;;4993751;28;20068;-65
2022/07/08 06:50:10;;;;;;;5.60;1.90;;;;;;;;;;5025322;28;20037;-64
2022/07/08 06:52:36;;;;;;;6.38;1.65;;;;;;;;;;5025958;28;20501;-64
2022/07/08 06:55:02;;;;;;;7.20;1.73;;;;;;;;;;5018123;28;20025;-63
2022/07/08 06:57:28;;;;;;;9.73;2.00;;;;;;;;;;5030401;28;20025;-63
2022/07/08 06:59:54;;;;;;;6.10;1.67;;;;;;;;;;5027865;28;20029;-63
2022/07/08 07:02:20;;;;;;;4.88;1.52;;;;;;;;;;5031734;28;20034;-63
2022/07/08 07:04:45;;;;;;;5.00;1.63;;;;;;;;;;5030099;28;20045;-65
2022/07/08 07:07:11;;;;;;;7.15;1.88;;;;;;;;;;5031621;28;20363;-64
2022/07/08 07:09:38;;;;;;;10.77;2.20;;;;;;;;;;5027796;28;20160;-66
2022/07/08 07:12:05;;;;;;;5.55;1.77;;;;;;;;;;5027537;28;20033;-64
2022/07/08 07:14:31;;;;;;;10.02;2.10;;;;;;;;;;5029009;28;20033;-65
2022/07/08 07:16:57;;;;;;;7.50;1.90;;;;;;;;;;5031733;28;20033;-65
2022/07/08 07:19:22;;;;;;;7.72;1.90;;;;;;;;;;5030568;28;20495;-65
2022/07/08 07:21:47;;;;;;;6.93;2.15;;;;;;;;;;5026920;28;20033;-65
2022/07/08 07:24:13;;;;;;;7.30;1.95;;;;;;;;;;5029932;28;20036;-63
2022/07/08 07:26:38;;;;;;;7.78;1.83;;;;;;;;;;5030479;28;20032;-64
2022/07/08 07:29:04;;;;;;;7.03;1.85;;;;;;;;;;5030199;28;20498;-64
2022/07/08 07:31:29;;;;;;;8.23;1.95;;;;;;;;;;5029395;28;20030;-64
2022/07/08 07:33:55;;;;;;;8.80;2.10;;;;;;;;;;5030075;28;20113;-63
2022/07/08 07:36:20;;;;;;;7.53;2.10;;;;;;;;;;5030086;28;20096;-64
2022/07/08 07:38:46;;;;;;;6.97;2.20;;;;;;;;;;5026188;28;20026;-65
2022/07/08 07:41:11;;;;;;;7.43;2.47;;;;;;;;;;5029444;28;20034;-64
2022/07/08 07:43:37;;;;;;;7.82;2.00;;;;;;;;;;5029735;28;20030;-64
2022/07/08 07:46:02;;;;;;;6.80;2.30;;;;;;;;;;5011948;28;20038;-64
2022/07/08 07:48:28;;;;;;;8.30;2.33;;;;;;;;;;5011349;28;20061;-65
2022/07/08 07:50:53;;;;;;;5.63;2.30;;;;;;;;;;5029650;28;20038;-64
2022/07/08 07:53:19;;;;;;;7.70;1.98;;;;;;;;;;5030357;28;20049;-64
2022/07/08 07:55:45;;;;;;;7.00;1.90;;;;;;;;;;5027678;28;20065;-64
2022/07/08 07:58:10;;;;;;;6.22;1.95;;;;;;;;;;5027452;28;20018;-63
2022/07/08 08:00:36;;;;;;;4.82;2.30;;;;;;;;;;5022804;28;20040;-60
2022/07/08 08:03:01;;;;;;;8.25;2.10;;;;;;;;;;5031546;28;20427;-62
2022/07/08 08:05:26;;;;;;;7.32;2.08;;;;;;;;;;5029738;28;20030;-64
2022/07/08 08:07:52;;;;;;;7.38;2.10;;;;;;;;;;5028919;28;20406;-64
2022/07/08 08:10:17;;;;;;;7.53;2.08;;;;;;;;;;5030954;28;20037;-63
2022/07/08 08:12:43;;;;;;;7.80;2.30;;;;;;;;;;5025460;28;20029;-63
2022/07/08 08:15:09;;;;;;;8.82;2.25;;;;;;;;;;5014634;28;20034;-63
2022/07/08 08:17:38;;;;;;;3.47;1.88;;;;;;;;;;5015839;28;20061;-62
2022/07/08 08:20:06;;;;;;;10.32;2.35;;;;;;;;;;5034492;28;20493;-63
2022/07/08 08:22:32;;;;;;;7.65;2.53;;;;;;;;;;5028093;28;20084;-61
2022/07/08 08:24:57;;;;;;;8.57;2.70;;;;;;;;;;5016795;28;20037;-62
2022/07/08 08:27:23;;;;;;;7.60;2.33;;;;;;;;;;5033803;28;20040;-63
2022/07/08 08:29:48;;;;;;;5.78;1.98;;;;;;;;;;5022629;28;20033;-63
2022/07/08 08:32:13;;;;;;;9.38;2.35;;;;;;;;;;5030784;28;20026;-61
2022/07/08 08:34:39;;;;;;;7.15;2.50;;;;;;;;;;5030806;28;20481;-63
2022/07/08 08:37:04;;;;;;;4.57;2.00;;;;;;;;;;5015027;28;20100;-62
2022/07/08 08:39:30;;;;;;;4.80;2.00;;;;;;;;;;5013806;28;20438;-63
2022/07/08 08:41:55;;;;;;;9.13;2.05;;;;;;;;;;5015145;28;20034;-62
2022/07/08 08:44:21;;;;;;;5.85;2.10;;;;;;;;;;5029971;28;20072;-63
2022/07/08 08:46:46;;;;;;;5.82;1.88;;;;;;;;;;5048269;28;20025;-62
2022/07/08 08:49:16;;;;;;;5.72;2.28;;;;;;;;;;5022738;28;20443;-63
2022/07/08 08:51:44;;;;;;;5.75;1.75;;;;;;;;;;5013332;28;20030;-62
2022/07/08 08:54:12;;;;;;;8.05;2.08;;;;;;;;;;5012314;28;20025;-62
2022/07/08 08:56:38;;;;;;;6.03;1.90;;;;;;;;;;5011320;28;20042;-62
2022/07/08 08:59:05;;;;;;;6.18;2.00;;;;;;;;;;5013655;28;20042;-62
2022/07/08 09:01:32;;;;;;;6.72;1.95;;;;;;;;;;5012702;28;20040;-62
2022/07/08 09:03:59;;;;;;;11.52;2.28;;;;;;;;;;4992399;28;20113;-62
2022/07/08 09:06:24;;;;;;;6.03;2.05;;;;;;;;;;4999547;28;20041;-61
2022/07/08 09:08:50;;;;;;;7.90;2.40;;;;;;;;;;5011649;28;20022;-62
2022/07/08 09:11:17;;;;;;;6.53;1.73;;;;;;;;;;4995230;28;20525;-62
2022/07/08 09:13:42;;;;;;;11.18;1.90;;;;;;;;;;5011254;28;20389;-61
2022/07/08 09:16:08;;;;;;;7.60;2.08;;;;;;;;;;5010671;28;20030;-63
2022/07/08 09:18:35;;;;;;;4.32;1.60;;;;;;;;;;5012712;28;20116;-61
2022/07/08 09:21:02;;;;;;;6.75;2.13;;;;;;;;;;5011394;28;20064;-61
2022/07/08 09:23:46;;;;;;;6.65;1.80;;;;;;;;;;5013348;28;20057;-62
2022/07/08 09:26:12;;;;;;;5.05;1.80;;;;;;;;;;5012866;28;20125;-62
2022/07/08 09:28:45;;;;;;;7.43;2.10;;;;;;;;;;5005977;28;20120;-63
2022/07/08 09:31:13;;;;;;;8.32;2.10;;;;;;;;;;5013330;28;20113;-64
2022/07/08 09:33:39;;;;;;;5.43;1.92;;;;;;;;;;5012597;28;20445;-60
2022/07/08 09:36:06;;;;;;;7.32;2.03;;;;;;;;;;5003847;28;20048;-62
2022/07/08 09:38:37;;;;;;;4.65;1.58;;;;;;;;;;5008671;28;20074;-60
2022/07/08 09:41:04;;;;;;;3.83;1.50;;;;;;;;;;5012087;28;20042;-61
2022/07/08 09:43:42;;;;;;;7.60;1.67;;;;;;;;;;5010873;28;20117;-61
2022/07/08 09:46:07;;;;;;;6.68;1.52;;;;;;;;;;5012163;28;20037;-62
2022/07/08 09:48:34;;;;;;;6.53;1.60;;;;;;;;;;5005067;28;20046;-62
2022/07/08 09:51:00;;;;;;;5.43;1.70;;;;;;;;;;4995397;28;20096;-61
2022/07/08 09:53:28;;;;;;;7.13;1.60;;;;;;;;;;5012097;28;20038;-61
2022/07/08 09:55:55;;;;;;;3.20;1.45;;;;;;;;;;5010288;28;20037;-61
2022/07/08 09:58:27;;;;;;;6.45;1.60;;;;;;;;;;5009913;28;20030;-61
2022/07/08 10:00:53;;;;;;;5.47;1.92;;;;;;;;;;5012002;28;20113;-64
2022/07/08 10:03:20;;;;;;;5.50;1.95;;;;;;;;;;4994938;28;20021;-64
2022/07/08 10:05:46;;;;;;;4.22;1.73;;;;;;;;;;5012053;28;20041;-63
2022/07/08 10:08:13;;;;;;;7.65;1.80;;;;;;;;;;5011092;28;20030;-65
2022/07/08 10:10:40;;;;;;;5.55;1.65;;;;;;;;;;5011632;28;20120;-63
2022/07/08 10:13:05;;;;;;;4.22;2.00;;;;;;;;;;5010748;28;20030;-62
2022/07/08 10:15:33;;;;;;;5.15;1.52;;;;;;;;;;5009962;28;20036;-62
2022/07/08 10:18:09;;;;;;;5.63;1.77;;;;;;;;;;5010650;28;20091;-63
2022/07/08 10:20:37;;;;;;;4.85;1.67;;;;;;;;;;5010331;28;20038;-62
2022/07/08 10:23:07;;;;;;;8.02;1.70;;;;;;;;;;5008693;28;20030;-63
2022/07/08 10:25:33;;;;;;;4.95;1.80;;;;;;;;;;5004922;28;20034;-63
2022/07/08 10:28:09;;;;;;;4.60;1.70;;;;;;;;;;5003090;28;20436;-62
2022/07/08 10:30:46;;;;;;;6.80;1.60;;;;;;;;;;5009841;28;20033;-62
2022/07/08 10:33:18;;;;;;;4.78;1.55;;;;;;;;;;5011839;28;20038;-62
2022/07/08 10:36:03;;;;;;;4.60;1.52;;;;;;;;;;5004116;28;20026;-62
2022/07/08 10:38:32;;;;;;;5.88;1.85;;;;;;;;;;5010306;28;20068;-62
2022/07/08 10:41:07;;;;;;;6.85;1.73;;;;;;;;;;5011169;28;20026;-63
2022/07/08 10:43:33;;;;;;;8.20;2.20;;;;;;;;;;5010421;28;20041;-63
2022/07/08 10:46:13;;;;;;;5.07;1.73;;;;;;;;;;5011240;28;20025;-63
2022/07/08 10:48:41;;;;;;;4.57;1.77;;;;;;;;;;5014242;28;20059;-62
2022/07/08 10:51:28;;;;;;;6.03;1.90;;;;;;;;;;5030235;28;20040;-62
2022/07/08 10:53:58;;;;;;;5.90;1.67;;;;;;;;;;5031529;28;20163;-63
2022/07/08 10:56:50;;;;;;;5.40;1.73;;;;;;;;;;5020195;28;20053;-62
2022/07/08 10:59:25;;;;;;;9.85;2.00;;;;;;;;;;5012040;28;20118;-62
2022/07/08 11:01:52;;;;;;;5.35;1.80;;;;;;;;;;5030117;28;20072;-62
2022/07/08 11:04:39;;;;;;;6.20;2.15;;;;;;;;;;5029868;28;20033;-61
2022/07/08 11:07:26;;;;;;;4.97;1.70;;;;;;;;;;5031665;28;20026;-63
2022/07/08 11:10:03;;;;;;;5.95;1.80;;;;;;;;;;5018719;28;20525;-62
2022/07/08 11:12:31;;;;;;;4.32;1.70;;;;;;;;;;5029824;28;20171;-62
2022/07/08 11:14:58;;;;;;;4.25;1.80;;;;;;;;;;5031487;28;20570;-63
2022/07/08 11:17:29;;;;;;;4.07;1.70;;;;;;;;;;5029515;28;20045;-61
2022/07/08 11:19:56;;;;;;;3.35;1.45;;;;;;;;;;5030107;28;20048;-62
2022/07/08 11:22:23;;;;;;;4.22;1.50;;;;;;;;;;5030629;28;20041;-62
2022/07/08 11:24:48;;;;;;;6.63;2.17;;;;;;;;;;5027968;28;20034;-62
2022/07/08 11:27:15;;;;;;;4.57;1.80;;;;;;;;;;5029356;28;20029;-62
2022/07/08 11:29:48;;;;;;;6.20;1.85;;;;;;;;;;5018356;28;20033;-63
2022/07/08 11:32:14;;;;;;;6.93;1.77;;;;;;;;;;5012010;28;20422;-63
2022/07/08 11:34:39;;;;;;;5.57;1.60;;;;;;;;;;5030458;28;20033;-63
2022/07/08 11:37:05;;;;;;;9.95;1.80;;;;;;;;;;5031373;28;20032;-62
2022/07/08 11:39:30;;;;;;;6.13;1.90;;;;;;;;;;5028685;28;20037;-62
2022/07/08 11:41:56;;;;;;;7.50;1.80;;;;;;;;;;5030532;28;20399;-61
2022/07/08 11:44:22;;;;;;;5.85;1.85;;;;;;;;;;5031346;28;20030;-62
2022/07/08 11:46:50;;;;;;;6.40;2.10;;;;;;;;;;5031557;28;20087;-62
2022/07/08 11:49:16;;;;;;;4.97;1.60;;;;;;;;;;5018143;28;20114;-63
2022/07/08 11:51:46;;;;;;;5.88;1.77;;;;;;;;;;5027665;28;20503;-61
2022/07/08 11:54:12;;;;;;;5.30;1.60;;;;;;;;;;5024045;28;20078;-60
2022/07/08 11:56:38;;;;;;;4.72;1.90;;;;;;;;;;5030461;28;20061;-61
2022/07/08 11:59:04;;;;;;;9.82;1.90;;;;;;;;;;5028417;28;20084;-61
2022/07/08 12:01:30;;;;;;;6.15;1.75;;;;;;;;;;5033198;28;20029;-61
2022/07/08 12:03:59;;;;;;;7.35;1.75;;;;;;;;;;5024813;28;20038;-61
2022/07/08 12:06:26;;;;;;;5.23;1.70;;;;;;;;;;5018328;28;20030;-60
2022/07/08 12:08:52;;;;;;;5.53;1.50;;;;;;;;;;5031424;28;20335;-59
2022/07/08 12:11:19;;;;;;;5.75;1.90;;;;;;;;;;5028628;28;20052;-61
2022/07/08 12:13:53;;;;;;;5.55;1.95;;;;;;;;;;5032292;28;20331;-61
2022/07/08 12:16:32;;;;;;;4.90;1.58;;;;;;;;;;5030035;28;20025;-61
2022/07/08 12:18:59;;;;;;;5.35;1.52;;;;;;;;;;5029968;28;20099;-60
2022/07/08 12:21:24;;;;;;;6.07;1.70;;;;;;;;;;5033936;28;20033;-61
2022/07/08 12:24:01;;;;;;;5.93;1.90;;;;;;;;;;5032787;28;20033;-61
2022/07/08 12:26:27;;;;;;;7.25;1.80;;;;;;;;;;5013325;28;20403;-60
2022/07/08 12:28:53;;;;;;;6.03;1.95;;;;;;;;;;5014595;28;20026;-61
2022/07/08 12:31:51;;;;;;;6.43;1.90;;;;;;;;;;5032923;28;20039;-60
2022/07/08 12:34:18;;;;;;;4.70;1.67;;;;;;;;;;5011278;28;20044;-62
2022/07/08 12:36:43;;;;;;;5.18;1.75;;;;;;;;;;5031437;28;20398;-61
2022/07/08 12:39:13;;;;;;;6.55;1.50;;;;;;;;;;5034058;28;20025;-60
2022/07/08 12:41:40;;;;;;;4.05;1.80;;;;;;;;;;5032326;28;20041;-61
2022/07/08 12:44:30;;;;;;;8.90;1.90;;;;;;;;;;5032219;28;20481;-61
2022/07/08 12:46:56;;;;;;;4.57;1.60;;;;;;;;;;5034179;28;20033;-60
2022/07/08 12:49:23;;;;;;;4.55;1.60;;;;;;;;;;5023294;28;20332;-61
2022/07/08 12:51:49;;;;;;;6.85;1.70;;;;;;;;;;5023581;28;20106;-61
2022/07/08 12:54:15;;;;;;;6.45;1.70;;;;;;;;;;5015488;28;20115;-60
2022/07/08 12:56:40;;;;;;;6.30;1.80;;;;;;;;;;5032011;28;20048;-61
2022/07/08 12:59:06;;;;;;;6.63;1.77;;;;;;;;;;5031714;28;20025;-61
2022/07/08 13:01:31;;;;;;;4.60;1.63;;;;;;;;;;5032653;28;20033;-61
2022/07/08 13:03:57;;;;;;;6.13;1.73;;;;;;;;;;5028040;28;20558;-60
2022/07/08 13:06:22;;;;;;;4.10;1.70;;;;;;;;;;5018456;28;20037;-61
2022/07/08 13:08:48;;;;;;;7.18;1.80;;;;;;;;;;5020163;28;20041;-60
2022/07/08 13:11:13;;;;;;;4.85;1.70;;;;;;;;;;5029096;28;20029;-60
2022/07/08 13:13:38;;;;;;;6.63;1.73;;;;;;;;;;5032491;28;20112;-61
2022/07/08 13:16:04;;;;;;;4.45;1.80;;;;;;;;;;5046884;28;20072;-61
2022/07/08 13:18:30;;;;;;;7.97;1.95;;;;;;;;;;5032612;28;20029;-62
2022/07/08 13:20:55;;;;;;;6.05;1.60;;;;;;;;;;5032422;28;20040;-60
2022/07/08 13:23:20;;;;;;;5.30;1.58;;;;;;;;;;5032065;28;20036;-61
2022/07/08 13:25:48;;;;;;;4.32;1.50;;;;;;;;;;5029633;28;20272;-61
2022/07/08 13:28:14;;;;;;;3.60;1.45;;;;;;;;;;5031405;28;20120;-61
2022/07/08 13:30:39;;;;;;;6.32;1.77;;;;;;;;;;5031798;28;20109;-61
2022/07/08 13:33:04;;;;;;;6.25;1.70;;;;;;;;;;5029017;28;20067;-62
2022/07/08 13:35:30;;;;;;;5.05;1.60;;;;;;;;;;5029802;28;20052;-62
2022/07/08 13:37:55;;;;;;;3.80;1.55;;;;;;;;;;5037793;28;20042;-62
2022/07/08 13:40:21;;;;;;;3.35;1.60;;;;;;;;;;5018796;28;20129;-62
2022/07/08 13:42:46;;;;;;;3.92;2.03;;;;;;;;;;5030867;28;20037;-62
2022/07/08 13:45:12;;;;;;;2.97;1.60;;;;;;;;;;5031915;28;20327;-61
2022/07/08 13:53:08;;;;;;;3.95;1.63;;;;;;;;;;4927682;23;20053;-63
2022/07/08 13:55:34;;;;;;;5.10;1.83;;;;;;;;;;4879209;29;20116;-68
2022/07/08 13:57:59;;;;;;;3.72;1.73;;;;;;;;;;4892138;29;20086;-65
2022/07/08 14:00:25;;;;;;;5.13;1.67;;;;;;;;;;4897316;29;20039;-64
2022/07/08 14:02:51;;;;;;;4.53;1.70;;;;;;;;;;4894505;29;20085;-64
2022/07/08 14:05:17;;;;;;;5.28;1.60;;;;;;;;;;4881635;29;20026;-64
2022/07/08 14:07:42;;;;;;;4.80;2.00;;;;;;;;;;4880319;29;20098;-64
2022/07/08 14:10:08;;;;;;;5.18;1.83;;;;;;;;;;4893467;29;20116;-63
2022/07/08 14:12:33;;;;;;;5.57;1.80;;;;;;;;;;4883220;29;20103;-63
2022/07/08 14:15:01;;;;;;;4.40;1.70;;;;;;;;;;4896195;29;20101;-65
2022/07/08 14:17:27;;;;;;;3.85;1.60;;;;;;;;;;4892502;29;20037;-64
2022/07/08 14:19:52;;;;;;;4.15;1.77;;;;;;;;;;4888818;29;20036;-63
2022/07/08 14:22:17;;;;;;;5.80;1.98;;;;;;;;;;4889803;29;20092;-63
2022/07/08 14:24:43;;;;;;;3.97;1.83;;;;;;;;;;4893650;29;20249;-63
2022/07/08 14:27:09;;;;;;;5.78;1.73;;;;;;;;;;4893912;29;20056;-63
2022/07/08 14:29:35;;;;;;;6.63;1.65;;;;;;;;;;4895201;29;20036;-63
2022/07/08 14:32:00;;;;;;;4.47;1.80;;;;;;;;;;4894663;29;20037;-65
2022/07/08 14:34:26;;;;;;;5.05;1.90;;;;;;;;;;4875104;29;20039;-64
2022/07/08 14:36:51;;;;;;;4.13;1.77;;;;;;;;;;4894829;29;20128;-63
2022/07/08 14:39:17;;;;;;;4.78;1.70;;;;;;;;;;4891894;29;20041;-63
2022/07/08 14:41:42;;;;;;;7.15;1.83;;;;;;;;;;4887671;29;20482;-64
2022/07/08 14:44:08;;;;;;;4.53;1.60;;;;;;;;;;4893335;29;20040;-63
2022/07/08 14:46:34;;;;;;;3.97;1.55;;;;;;;;;;4893925;29;20426;-63
2022/07/08 14:48:59;;;;;;;6.45;1.98;;;;;;;;;;4895910;29;20028;-64